Time;durP1;ratioP1;P1;durP2;ratioP2;P2;SDS_P1;SDS_P2;PMS_P1;PMS_P2;Temp;Humidity;BMP_temperature;BMP_pressure;BME280_temperature;BME280_humidity;BME280_pressure;Samples;Min_cycle;Max_cycle;Signal;HPM_P1;HPM_P2
2022/10/19 00:01:31;;;;;;;19.60;9.70;;;;;;;12.39;100.00;100775.73;638926;1299;139507;-80
2022/10/19 00:16:37;;;;;;;21.20;8.60;;;;;;;12.29;100.00;100777.41;637583;1294;140448;-80
2022/10/19 00:31:40;;;;;;;18.20;6.60;;;;;;;12.28;100.00;100774.17;636554;1295;139636;-81
2022/10/19 00:46:47;;;;;;;20.00;7.30;;;;;;;12.47;100.00;100769.02;638163;1301;139737;-81
2022/10/19 01:01:52;;;;;;;14.50;6.20;;;;;;;12.52;100.00;100760.35;638129;1300;140155;-80
2022/10/19 01:17:13;;;;;;;14.20;6.10;;;;;;;12.64;100.00;100762.21;638261;1293;141156;-81
2022/10/19 01:32:45;;;;;;;11.80;4.40;;;;;;;12.67;100.00;100764.14;637354;1301;140492;-81
2022/10/19 01:47:58;;;;;;;11.50;4.70;;;;;;;12.36;100.00;100748.63;637776;1300;140657;-81
2022/10/19 02:03:04;;;;;;;15.50;8.20;;;;;;;12.35;100.00;100733.23;637994;1299;140050;-81
2022/10/19 02:18:11;;;;;;;14.80;7.10;;;;;;;12.43;100.00;100727.13;638268;1298;140029;-81
2022/10/19 02:33:15;;;;;;;16.50;6.00;;;;;;;12.31;100.00;100707.45;637567;1294;140506;-81
2022/10/19 02:48:22;;;;;;;20.70;8.90;;;;;;;12.05;100.00;100705.73;639029;1302;139759;-81
2022/10/19 03:03:25;;;;;;;15.00;6.30;;;;;;;11.86;100.00;100701.05;637878;1308;140147;-81
2022/10/19 03:18:28;;;;;;;14.10;5.60;;;;;;;11.78;100.00;100692.76;638003;1298;139533;-81
2022/10/19 03:33:31;;;;;;;14.90;5.00;;;;;;;11.74;100.00;100695.91;637367;1313;139989;-81
2022/10/19 03:48:35;;;;;;;12.50;4.90;;;;;;;11.80;100.00;100696.77;644693;1294;139853;-82
2022/10/19 04:03:38;;;;;;;16.70;5.00;;;;;;;11.94;100.00;100699.45;640957;1301;139355;-81
2022/10/19 04:18:42;;;;;;;8.70;4.90;;;;;;;12.06;100.00;100705.26;638791;1294;140777;-81
2022/10/19 04:33:45;;;;;;;13.30;4.00;;;;;;;12.11;100.00;100699.42;639565;1294;139489;-80
2022/10/19 04:48:54;;;;;;;13.40;5.00;;;;;;;12.07;100.00;100695.52;636906;1301;140072;-80
2022/10/19 05:04:00;;;;;;;9.00;4.40;;;;;;;12.08;100.00;100684.23;638119;1307;139221;-81
2022/10/19 05:19:04;;;;;;;8.20;3.90;;;;;;;12.17;100.00;100684.72;640240;1297;140241;-81
2022/10/19 05:34:07;;;;;;;10.40;4.40;;;;;;;12.10;100.00;100685.79;640357;1294;140843;-81
2022/10/19 05:50:09;;;;;;;9.30;4.20;;;;;;;12.25;100.00;100699.64;625803;1325;2477602;-81
2022/10/19 06:05:12;;;;;;;14.60;5.50;;;;;;;12.25;100.00;100708.21;634661;1312;138495;-81
2022/10/19 06:20:16;;;;;;;13.60;4.10;;;;;;;12.36;100.00;100720.71;633697;1313;139175;-82
2022/10/19 06:35:19;;;;;;;10.30;3.90;;;;;;;12.58;100.00;100731.93;633805;1306;138633;-81
2022/10/19 06:50:22;;;;;;;4.60;2.40;;;;;;;12.59;100.00;100752.54;636200;1321;138559;-82
2022/10/19 07:05:26;;;;;;;3.10;2.50;;;;;;;12.53;100.00;100780.58;635044;1305;139302;-82
2022/10/19 07:20:30;;;;;;;5.50;3.10;;;;;;;12.54;100.00;100803.51;633209;1306;139222;-82
2022/10/19 07:35:35;;;;;;;6.80;3.00;;;;;;;12.54;100.00;100827.00;633148;1307;139208;-82
2022/10/19 07:50:38;;;;;;;5.70;2.70;;;;;;;12.46;100.00;100852.98;632806;1306;139619;-82
2022/10/19 08:05:42;;;;;;;8.90;3.80;;;;;;;12.46;100.00;100860.69;632764;1309;139484;-82
2022/10/19 08:20:46;;;;;;;6.60;3.40;;;;;;;13.10;100.00;100871.89;633283;1306;138803;-82
2022/10/19 08:35:49;;;;;;;6.10;3.10;;;;;;;13.68;100.00;100885.39;632647;1322;139157;-83
2022/10/19 08:50:54;;;;;;;7.80;3.30;;;;;;;13.64;100.00;100895.09;633064;1301;138813;-82
2022/10/19 09:06:07;;;;;;;7.30;4.20;;;;;;;14.48;100.00;100902.23;633134;1308;140305;-83
2022/10/19 09:21:20;;;;;;;5.30;2.00;;;;;;;15.92;100.00;100922.95;633598;1308;138922;-82
2022/10/19 09:36:48;;;;;;;13.50;5.70;;;;;;;16.99;100.00;100935.48;634549;1308;139488;-82
2022/10/19 09:51:53;;;;;;;2.80;1.40;;;;;;;17.64;93.63;100948.45;632487;1312;139984;-81
2022/10/19 10:06:58;;;;;;;2.80;0.70;;;;;;;17.76;85.16;100954.53;632409;1306;140166;-83
2022/10/19 10:22:03;;;;;;;2.80;0.70;;;;;;;18.12;76.96;100967.27;632661;1300;138158;-83
2022/10/19 10:37:16;;;;;;;4.00;1.40;;;;;;;18.03;72.99;100987.36;633040;1308;138367;-82
2022/10/19 10:52:20;;;;;;;2.60;1.00;;;;;;;15.99;73.31;101025.59;633368;1305;138406;-82
2022/10/19 11:07:26;;;;;;;1.20;0.70;;;;;;;15.50;75.41;101018.45;633478;1308;139485;-82
2022/10/19 11:23:18;;;;;;;2.30;1.20;;;;;;;16.44;74.32;101020.65;633195;1315;138637;-82
2022/10/19 11:38:48;;;;;;;5.60;2.80;;;;;;;16.50;74.73;101037.70;634752;1314;138791;-81
2022/10/19 11:54:23;;;;;;;4.60;1.70;;;;;;;15.43;75.13;101043.27;633532;1314;139124;-81
2022/10/19 12:09:36;;;;;;;2.00;1.10;;;;;;;14.43;75.64;101049.09;633435;1312;138484;-82
2022/10/19 12:24:40;;;;;;;2.30;1.00;;;;;;;14.94;77.10;101054.91;632738;1300;139491;-82
2022/10/19 12:40:06;;;;;;;5.50;2.10;;;;;;;16.02;76.54;101049.69;633354;1321;138591;-82
2022/10/19 12:55:33;;;;;;;4.20;1.80;;;;;;;17.86;73.41;101054.98;634497;1303;138605;-83
2022/10/19 13:10:37;;;;;;;3.80;1.30;;;;;;;18.69;67.30;101066.03;633078;1315;140200;-81
2022/10/19 13:25:41;;;;;;;5.00;1.30;;;;;;;23.19;57.78;101085.05;633042;1314;139270;-81
2022/10/19 13:40:48;;;;;;;3.70;1.90;;;;;;;19.57;57.43;101095.80;633015;1313;139440;-81
2022/10/19 13:56:15;;;;;;;9.50;3.70;;;;;;;27.45;52.43;101103.83;631805;1307;139190;-81
2022/10/19 14:11:26;;;;;;;4.70;2.70;;;;;;;26.93;48.03;101118.66;632838;1306;138651;-80
2022/10/19 14:26:30;;;;;;;10.50;3.80;;;;;;;17.37;52.78;101130.45;633158;1308;137965;-80
2022/10/19 14:41:35;;;;;;;8.10;3.90;;;;;;;14.86;58.14;101146.57;634171;1311;138643;-79
2022/10/19 14:57:10;;;;;;;14.80;7.40;;;;;;;15.36;60.17;101151.79;633024;1314;138091;-79
2022/10/19 15:12:21;;;;;;;22.20;13.80;;;;;;;17.51;57.95;101153.46;634304;1305;138584;-80
2022/10/19 15:27:36;;;;;;;12.00;5.10;;;;;;;18.83;54.57;101171.11;633939;1307;139009;-79
2022/10/19 15:42:47;;;;;;;42.60;17.30;;;;;;;14.69;56.37;101184.05;640658;1306;138598;-79
2022/10/19 15:57:57;;;;;;;51.40;25.60;;;;;;;12.87;60.03;101197.47;633222;1322;138302;-79
2022/10/19 16:13:01;;;;;;;142.70;51.10;;;;;;;12.11;62.87;101209.05;632465;1314;138206;-80
2022/10/19 16:28:05;;;;;;;42.60;19.60;;;;;;;11.80;64.64;101225.69;634473;1300;138574;-80
2022/10/19 16:43:08;;;;;;;53.80;20.90;;;;;;;11.40;66.13;101240.35;632900;1307;139780;-80
2022/10/19 16:58:12;;;;;;;125.90;60.10;;;;;;;11.11;67.39;101251.59;631728;1314;139270;-79
2022/10/19 17:13:15;;;;;;;85.60;38.50;;;;;;;10.70;68.32;101264.94;633141;1321;138937;-79
2022/10/19 17:28:19;;;;;;;78.40;31.70;;;;;;;10.36;69.72;101278.89;632782;1308;138771;-80
2022/10/19 17:43:27;;;;;;;104.00;41.80;;;;;;;10.04;70.68;101296.54;634435;1307;139391;-80
2022/10/19 17:58:34;;;;;;;184.90;81.00;;;;;;;9.62;72.26;101298.48;634176;1321;949000;-80
2022/10/19 18:13:42;;;;;;;177.60;75.10;;;;;;;9.27;73.46;101325.07;633031;1317;139473;-80
2022/10/19 18:28:52;;;;;;;217.90;90.10;;;;;;;8.85;74.63;101349.61;632833;1306;138880;-80
2022/10/19 18:44:00;;;;;;;171.00;66.10;;;;;;;8.94;76.83;101346.63;633120;1317;139166;-80
2022/10/19 18:59:06;;;;;;;113.50;52.30;;;;;;;8.96;77.75;101353.77;634247;1314;139659;-78
2022/10/19 19:14:16;;;;;;;73.90;28.50;;;;;;;8.95;79.05;101357.34;633671;1321;138680;-79
2022/10/19 19:29:20;;;;;;;39.40;15.00;;;;;;;8.97;79.59;101364.04;639414;1322;140198;-79
2022/10/19 19:44:28;;;;;;;37.00;16.00;;;;;;;9.01;80.12;101382.64;636829;1322;139599;-79
2022/10/19 19:59:31;;;;;;;62.10;26.80;;;;;;;8.60;80.71;101396.66;632355;1306;138690;-79
2022/10/19 20:14:34;;;;;;;109.60;51.30;;;;;;;8.14;80.97;101416.67;632431;1307;139206;-79
2022/10/19 20:29:38;;;;;;;149.90;65.10;;;;;;;7.72;81.81;101437.63;632288;1307;139763;-79
2022/10/19 20:44:42;;;;;;;36.50;18.60;;;;;;;7.83;83.81;101443.41;632761;1298;138950;-80
2022/10/19 20:59:47;;;;;;;23.20;13.40;;;;;;;7.82;85.09;101443.11;632271;1311;139125;-80
2022/10/19 21:14:51;;;;;;;32.80;14.80;;;;;;;7.99;85.39;101438.30;632763;1307;139410;-79
2022/10/19 21:29:54;;;;;;;40.10;17.10;;;;;;;7.88;86.50;101437.53;631885;1310;139450;-79
2022/10/19 21:44:58;;;;;;;68.30;26.90;;;;;;;7.46;87.82;101430.55;632929;1297;138907;-79
2022/10/19 22:00:19;;;;;;;33.40;16.30;;;;;;;7.11;88.92;101438.92;633973;1314;139366;-80
2022/10/19 22:15:22;;;;;;;30.90;15.10;;;;;;;7.07;89.84;101446.09;638408;1314;138669;-80
2022/10/19 22:30:26;;;;;;;23.10;12.20;;;;;;;7.31;90.17;101452.24;637856;1292;138619;-79
2022/10/19 22:45:29;;;;;;;25.30;11.10;;;;;;;7.37;90.55;101458.40;638258;1310;138594;-79
2022/10/19 23:00:32;;;;;;;23.80;12.60;;;;;;;7.39;90.59;101456.35;637899;1313;138979;-79
2022/10/19 23:15:35;;;;;;;24.60;12.40;;;;;;;7.32;90.88;101455.87;638656;1298;139607;-79
2022/10/19 23:30:43;;;;;;;31.20;14.00;;;;;;;7.19;91.07;101471.90;638205;1298;139555;-78
2022/10/19 23:45:46;;;;;;;119.10;46.60;;;;;;;7.04;91.37;101492.69;637867;1313;138775;-79
